createdAt,value
2023-03-26T00:02:12.999Z,42.00
2023-03-26T00:04:40.878Z,27.77
2023-03-26T00:07:07.404Z,21.90
2023-03-26T00:09:33.907Z,21.67
2023-03-26T00:12:00.413Z,25.85
2023-03-26T00:14:26.881Z,22.92
2023-03-26T00:16:53.374Z,19.10
2023-03-26T00:19:19.851Z,27.17
2023-03-26T00:21:47.687Z,23.30
2023-03-26T00:24:14.360Z,20.90
2023-03-26T00:26:40.873Z,26.25
2023-03-26T00:29:07.597Z,19.48
2023-03-26T00:31:34.764Z,24.85
2023-03-26T00:34:01.449Z,22.52
2023-03-26T00:36:28.064Z,25.67
2023-03-26T00:38:55.934Z,27.00
2023-03-26T00:41:24.820Z,25.88
2023-03-26T00:43:52.932Z,28.00
2023-03-26T00:46:19.640Z,25.05
2023-03-26T00:48:46.993Z,22.60
2023-03-26T00:51:15.637Z,22.33
2023-03-26T00:53:43.081Z,21.80
2023-03-26T00:56:11.524Z,19.23
2023-03-26T00:58:38.441Z,24.67
2023-03-26T01:01:08.042Z,28.05
2023-03-26T01:03:36.708Z,19.55
2023-03-26T01:06:04.913Z,24.98
2023-03-26T01:08:33.402Z,25.35
2023-03-26T01:11:06.001Z,26.33
2023-03-26T01:13:37.078Z,17.33
2023-03-26T01:16:09.402Z,17.63
2023-03-26T01:18:37.216Z,33.38
2023-03-26T01:21:03.999Z,20.90
2023-03-26T01:23:40.799Z,14.70
2023-03-26T01:26:16.945Z,27.02
2023-03-26T01:28:43.544Z,23.85
2023-03-26T01:31:15.173Z,19.70
2023-03-26T01:33:48.969Z,20.27
2023-03-26T01:36:21.353Z,16.20
2023-03-26T01:38:53.162Z,19.83
2023-03-26T01:41:28.184Z,22.88
2023-03-26T01:44:00.494Z,27.88
2023-03-26T01:46:28.850Z,22.10
2023-03-26T01:48:55.360Z,25.52
2023-03-26T01:51:31.334Z,18.95
2023-03-26T01:53:59.309Z,23.50
2023-03-26T01:56:36.086Z,13.50
2023-03-26T01:59:16.144Z,24.10
2023-03-26T02:01:49.288Z,19.88
2023-03-26T02:04:22.762Z,19.95
2023-03-26T02:06:57.517Z,19.58
2023-03-26T02:09:30.786Z,18.02
2023-03-26T02:12:00.550Z,18.77
2023-03-26T02:14:29.624Z,14.02
2023-03-26T02:16:56.153Z,23.58
2023-03-26T02:19:22.702Z,24.70
2023-03-26T02:21:49.243Z,22.77
2023-03-26T02:24:15.768Z,18.45
2023-03-26T02:26:42.263Z,17.80
2023-03-26T02:29:10.930Z,26.67
2023-03-26T02:31:37.489Z,18.90
2023-03-26T02:34:04.043Z,27.25
2023-03-26T02:36:30.756Z,17.55
2023-03-26T02:38:57.394Z,16.88
2023-03-26T02:41:23.879Z,17.98
2023-03-26T02:43:50.355Z,20.08
2023-03-26T02:46:18.257Z,19.52
2023-03-26T02:48:44.841Z,20.38
2023-03-26T02:51:11.355Z,21.85
2023-03-26T02:53:37.844Z,15.05
2023-03-26T02:56:05.052Z,13.32
2023-03-26T02:58:31.522Z,20.63
2023-03-26T03:00:58.038Z,15.00
2023-03-26T03:03:27.216Z,16.00
2023-03-26T03:05:54.941Z,14.35
2023-03-26T03:08:23.922Z,17.20
2023-03-26T03:10:56.717Z,22.40
2023-03-26T03:13:23.260Z,18.20
2023-03-26T03:15:49.740Z,19.95
2023-03-26T03:18:16.225Z,18.95
2023-03-26T03:20:44.557Z,23.02
2023-03-26T03:23:11.069Z,16.73
2023-03-26T03:25:37.581Z,13.60
2023-03-26T03:28:04.534Z,18.35
2023-03-26T03:30:31.076Z,16.92
2023-03-26T03:32:57.630Z,15.23
2023-03-26T03:35:24.223Z,18.17
2023-03-26T03:37:52.067Z,17.88
2023-03-26T03:40:18.656Z,18.33
2023-03-26T03:42:45.289Z,18.35
2023-03-26T03:45:12.539Z,13.13
2023-03-26T03:47:39.352Z,8.63
2023-03-26T03:50:07.282Z,12.52
2023-03-26T03:52:33.798Z,14.05
2023-03-26T03:55:01.963Z,12.95
2023-03-26T03:57:29.837Z,13.52
2023-03-26T03:59:56.334Z,12.50
2023-03-26T04:02:22.883Z,10.00
2023-03-26T04:04:49.391Z,14.23
2023-03-26T04:07:15.909Z,11.30
2023-03-26T04:09:42.374Z,12.15
2023-03-26T04:12:10.206Z,10.52
2023-03-26T04:14:36.649Z,10.20
2023-03-26T04:17:03.137Z,11.77
2023-03-26T04:19:29.601Z,17.45
2023-03-26T04:21:56.089Z,13.13
2023-03-26T04:24:22.645Z,18.75
2023-03-26T04:26:49.414Z,15.90
2023-03-26T04:29:18.058Z,9.60
2023-03-26T04:31:44.589Z,17.13
2023-03-26T04:34:20.249Z,9.88
2023-03-26T04:36:46.723Z,15.55
2023-03-26T04:39:13.355Z,10.45
2023-03-26T04:41:39.901Z,13.43
2023-03-26T04:44:06.384Z,9.77
2023-03-26T04:46:34.319Z,11.25
2023-03-26T04:49:01.296Z,13.43
2023-03-26T04:51:34.887Z,12.57
2023-03-26T04:56:39.089Z,16.23
2023-03-26T04:59:05.764Z,12.73
2023-03-26T05:01:33.748Z,10.50
2023-03-26T05:04:00.321Z,9.93
2023-03-26T05:06:27.676Z,18.52
2023-03-26T05:08:54.643Z,15.50
2023-03-26T05:11:21.174Z,20.02
2023-03-26T05:13:47.671Z,10.60
2023-03-26T05:16:14.202Z,23.50
2023-03-26T05:18:42.122Z,13.10
2023-03-26T05:21:08.658Z,12.98
2023-03-26T05:23:35.134Z,13.52
2023-03-26T05:26:01.681Z,17.52
2023-03-26T05:28:28.211Z,15.32
2023-03-26T05:30:55.005Z,16.10
2023-03-26T05:33:22.209Z,12.88
2023-03-26T05:35:59.276Z,12.98
2023-03-26T05:38:25.829Z,11.48
2023-03-26T05:40:57.667Z,12.55
2023-03-26T05:43:24.175Z,16.85
2023-03-26T05:45:50.722Z,14.15
2023-03-26T05:48:17.265Z,20.08
2023-03-26T05:50:44.389Z,11.90
2023-03-26T05:53:12.178Z,14.18
2023-03-26T05:55:38.705Z,16.25
2023-03-26T05:58:05.208Z,13.93
2023-03-26T06:00:31.893Z,12.50
2023-03-26T06:02:58.578Z,12.55
2023-03-26T06:05:25.295Z,11.25
2023-03-26T06:07:51.941Z,11.10
2023-03-26T06:10:19.865Z,14.25
2023-03-26T06:12:46.408Z,11.90
2023-03-26T06:15:12.979Z,11.70
2023-03-26T06:17:39.515Z,16.48
2023-03-26T06:20:09.220Z,15.30
2023-03-26T06:22:36.226Z,19.10
2023-03-26T06:25:02.824Z,9.73
2023-03-26T06:27:30.655Z,9.93
2023-03-26T06:29:57.181Z,12.68
2023-03-26T06:32:23.750Z,14.82
2023-03-26T06:34:50.211Z,14.32
2023-03-26T06:37:16.846Z,11.63
2023-03-26T06:39:43.373Z,14.95
2023-03-26T06:42:09.868Z,13.73
2023-03-26T06:44:37.808Z,13.90
2023-03-26T06:47:04.331Z,11.35
2023-03-26T06:49:31.043Z,9.75
2023-03-26T06:51:57.556Z,8.77
2023-03-26T06:54:24.060Z,10.52
2023-03-26T06:56:50.645Z,16.42
2023-03-26T06:59:17.116Z,11.68
2023-03-26T07:01:46.436Z,15.60
2023-03-26T07:04:13.293Z,16.08
2023-03-26T07:06:39.800Z,9.95
2023-03-26T07:09:06.323Z,12.40
2023-03-26T07:11:32.851Z,12.00
2023-03-26T07:13:59.344Z,9.65
2023-03-26T07:16:25.926Z,12.93
2023-03-26T07:18:53.760Z,16.45
2023-03-26T07:21:20.908Z,17.75
2023-03-26T07:23:48.499Z,13.75
2023-03-26T07:26:25.961Z,8.18
2023-03-26T07:29:03.762Z,13.48
2023-03-26T07:31:37.274Z,14.55
2023-03-26T07:34:17.325Z,10.35
2023-03-26T07:36:52.052Z,11.27
2023-03-26T07:39:33.031Z,10.95
2023-03-26T07:42:05.418Z,14.18
2023-03-26T07:44:41.487Z,13.82
2023-03-26T07:47:19.999Z,16.23
2023-03-26T07:49:48.623Z,11.85
2023-03-26T07:52:15.547Z,15.23
2023-03-26T07:54:42.494Z,14.15
2023-03-26T07:57:18.889Z,10.38
2023-03-26T07:59:51.400Z,12.43
2023-03-26T08:02:36.989Z,10.13
2023-03-26T08:05:13.991Z,9.45
2023-03-26T08:07:52.704Z,14.38
2023-03-26T08:10:26.194Z,9.15
2023-03-26T08:12:57.840Z,10.68
2023-03-26T08:15:30.888Z,11.70
2023-03-26T08:18:03.411Z,14.52
2023-03-26T08:20:39.997Z,12.98
2023-03-26T08:23:13.901Z,9.18
2023-03-26T08:25:50.204Z,11.77
2023-03-26T08:28:29.381Z,7.88
2023-03-26T08:30:56.353Z,8.05
2023-03-26T08:33:26.438Z,11.00
2023-03-26T08:35:54.270Z,11.32
2023-03-26T08:38:21.513Z,11.25
2023-03-26T08:41:07.793Z,6.45
2023-03-26T08:43:55.595Z,7.70
2023-03-26T08:46:41.126Z,8.23
2023-03-26T08:49:49.114Z,7.85
2023-03-26T08:52:50.819Z,11.68
2023-03-26T08:55:39.790Z,10.93
2023-03-26T08:58:36.594Z,18.75
2023-03-26T09:01:24.135Z,13.27
2023-03-26T09:04:11.659Z,6.35
2023-03-26T09:07:14.642Z,12.55
2023-03-26T09:10:16.389Z,9.05
2023-03-26T09:13:19.891Z,7.53
2023-03-26T09:16:02.802Z,8.60
2023-03-26T09:18:55.765Z,7.30
2023-03-26T09:21:41.223Z,8.52
2023-03-26T09:24:40.847Z,4.68
2023-03-26T09:27:29.041Z,3.65
2023-03-26T09:30:26.372Z,5.60
2023-03-26T09:33:14.394Z,4.00
2023-03-26T09:36:28.389Z,4.68
2023-03-26T09:39:08.113Z,5.30
2023-03-26T09:41:42.475Z,7.03
2023-03-26T09:44:43.151Z,2.85
2023-03-26T09:47:27.552Z,4.32
2023-03-26T09:50:04.126Z,2.60
2023-03-26T09:52:49.640Z,4.22
2023-03-26T09:55:37.961Z,3.42
2023-03-26T09:58:27.539Z,1.90
2023-03-26T10:00:59.878Z,5.20
2023-03-26T10:03:38.317Z,3.60
2023-03-26T10:06:27.642Z,3.97
2023-03-26T10:09:24.316Z,3.30
2023-03-26T10:12:02.553Z,3.63
2023-03-26T10:14:35.000Z,4.80
2023-03-26T10:17:14.848Z,3.90
2023-03-26T10:20:19.156Z,3.88
2023-03-26T10:22:56.430Z,2.60
2023-03-26T10:25:35.154Z,2.55
2023-03-26T10:28:20.737Z,4.32
2023-03-26T10:31:08.288Z,3.42
2023-03-26T10:33:50.659Z,4.10
2023-03-26T10:36:33.557Z,6.88
2023-03-26T10:39:36.917Z,3.00
2023-03-26T10:42:19.065Z,2.92
2023-03-26T10:45:02.731Z,3.95
2023-03-26T10:47:58.948Z,1.55
2023-03-26T10:50:41.734Z,3.97
2023-03-26T10:53:15.600Z,2.60
2023-03-26T10:55:44.768Z,2.25
2023-03-26T10:58:17.386Z,3.28
2023-03-26T11:00:50.732Z,3.03
2023-03-26T11:03:32.285Z,3.10
2023-03-26T11:06:10.637Z,3.78
2023-03-26T11:08:45.670Z,2.75
2023-03-26T11:11:23.521Z,5.00
2023-03-26T11:13:59.328Z,5.15
2023-03-26T11:16:32.273Z,3.03
2023-03-26T11:19:05.692Z,2.33
2023-03-26T11:21:43.124Z,2.72
2023-03-26T11:24:32.883Z,3.03
2023-03-26T11:27:14.927Z,2.63
2023-03-26T11:29:52.173Z,5.45
2023-03-26T11:32:24.362Z,3.22
2023-03-26T11:34:59.268Z,6.32
2023-03-26T11:37:33.125Z,2.28
2023-03-26T11:42:28.452Z,3.00
2023-03-26T11:44:57.360Z,3.03
2023-03-26T11:47:31.587Z,4.20
2023-03-26T11:50:00.571Z,3.63
2023-03-26T11:52:28.581Z,2.00
2023-03-26T11:54:55.154Z,1.67
2023-03-26T11:57:25.135Z,2.97
2023-03-26T11:59:58.122Z,2.55
2023-03-26T12:02:28.420Z,1.33
2023-03-26T12:05:12.179Z,1.50
2023-03-26T12:07:46.344Z,1.40
2023-03-26T12:10:29.575Z,0.35
2023-03-26T12:12:58.502Z,6.55
2023-03-26T12:15:25.964Z,1.67
2023-03-26T12:21:17.243Z,0.20
2023-03-26T12:23:54.289Z,1.60
2023-03-26T12:26:29.590Z,0.52
2023-03-26T12:28:56.095Z,0.80
2023-03-26T12:31:23.013Z,1.23
2023-03-26T12:34:06.707Z,1.48
2023-03-26T12:36:34.528Z,0.85
2023-03-26T12:40:08.889Z,1.80
2023-03-26T12:44:49.932Z,1.35
2023-03-26T12:45:13.739Z,1.50
2023-03-26T12:48:00.651Z,0.73
2023-03-26T12:50:40.179Z,1.52
2023-03-26T12:53:22.327Z,2.13
2023-03-26T12:56:00.701Z,2.03
2023-03-26T12:59:08.927Z,1.92
2023-03-26T13:01:45.399Z,1.42
2023-03-26T13:04:27.397Z,2.78
2023-03-26T13:07:01.493Z,2.67
2023-03-26T13:09:51.052Z,2.38
2023-03-26T13:12:33.058Z,1.40
2023-03-26T13:15:17.326Z,1.35
2023-03-26T13:17:52.711Z,1.52
2023-03-26T13:20:29.140Z,0.90
2023-03-26T13:23:06.913Z,1.92
2023-03-26T13:25:41.068Z,1.25
2023-03-26T13:28:21.444Z,1.00
2023-03-26T13:30:58.022Z,14.43
2023-03-26T13:33:39.793Z,1.52
2023-03-26T13:36:22.638Z,2.47
2023-03-26T13:39:03.161Z,2.25
2023-03-26T13:41:42.683Z,1.63
2023-03-26T13:44:19.286Z,3.72
2023-03-26T13:46:50.405Z,2.15
2023-03-26T13:49:23.066Z,3.47
2023-03-26T13:51:53.645Z,3.30
2023-03-26T13:54:26.280Z,1.65
2023-03-26T13:56:59.762Z,2.55
2023-03-26T13:59:35.361Z,2.90
2023-03-26T14:02:08.829Z,3.35
2023-03-26T14:04:40.470Z,4.07
2023-03-26T14:07:14.583Z,3.30
2023-03-26T14:09:47.166Z,1.63
2023-03-26T14:12:27.515Z,3.35
2023-03-26T14:15:00.162Z,4.00
2023-03-26T14:17:30.925Z,3.13
2023-03-26T14:20:50.026Z,2.72
2023-03-26T14:23:34.370Z,3.97
2023-03-26T14:26:15.226Z,3.58
2023-03-26T14:29:13.978Z,2.80
2023-03-26T14:31:47.503Z,2.33
2023-03-26T14:34:28.713Z,4.93
2023-03-26T14:37:27.200Z,4.40
2023-03-26T14:40:07.525Z,3.60
2023-03-26T14:42:41.225Z,4.85
2023-03-26T14:48:32.986Z,6.60
2023-03-26T14:51:11.983Z,4.55
2023-03-26T14:53:43.286Z,3.42
2023-03-26T14:56:35.892Z,5.05
2023-03-26T14:59:32.129Z,5.82
2023-03-26T15:02:37.193Z,6.88
2023-03-26T15:05:38.414Z,5.30
2023-03-26T15:08:37.550Z,4.82
2023-03-26T15:11:21.210Z,7.10
2023-03-26T15:13:59.299Z,8.65
2023-03-26T15:17:07.971Z,7.40
2023-03-26T15:20:10.454Z,11.80
2023-03-26T15:23:05.415Z,12.23
2023-03-26T15:25:57.987Z,20.88
2023-03-26T15:29:11.964Z,13.98
2023-03-26T15:32:03.264Z,15.23
2023-03-26T15:35:16.566Z,14.73
2023-03-26T15:38:20.188Z,12.85
2023-03-26T15:40:56.659Z,13.25
2023-03-26T15:43:31.273Z,13.40
2023-03-26T15:46:25.749Z,16.67
2023-03-26T15:48:59.581Z,14.15
2023-03-26T15:51:46.537Z,14.43
2023-03-26T15:54:24.590Z,12.50
2023-03-26T15:57:19.111Z,14.93
2023-03-26T16:00:06.136Z,10.10
2023-03-26T16:02:41.382Z,16.95
2023-03-26T16:05:35.682Z,14.27
2023-03-26T16:10:41.423Z,15.48
2023-03-26T16:13:30.112Z,14.40
2023-03-26T16:16:21.502Z,18.60
2023-03-26T16:22:02.318Z,19.20
2023-03-26T16:24:32.941Z,22.85
2023-03-26T16:27:27.291Z,12.35
2023-03-26T16:30:14.578Z,16.60
2023-03-26T16:32:44.058Z,15.25
2023-03-26T16:35:40.132Z,17.92
2023-03-26T16:38:12.344Z,14.38
2023-03-26T16:40:57.671Z,7.88
2023-03-26T16:43:51.718Z,9.10
2023-03-26T16:46:28.634Z,13.52
2023-03-26T16:49:00.812Z,12.75
2023-03-26T16:51:41.994Z,6.68
2023-03-26T16:54:16.814Z,12.65
2023-03-26T16:56:50.701Z,12.18
2023-03-26T16:59:42.782Z,13.77
2023-03-26T17:02:22.815Z,14.70
2023-03-26T17:04:55.745Z,12.13
2023-03-26T17:07:29.545Z,17.40
2023-03-26T17:10:07.277Z,12.32
2023-03-26T17:12:40.658Z,9.68
2023-03-26T17:15:18.348Z,7.63
2023-03-26T17:18:20.647Z,9.52
2023-03-26T17:20:57.204Z,8.88
2023-03-26T17:23:43.358Z,14.43
2023-03-26T17:26:16.572Z,11.10
2023-03-26T17:28:53.988Z,16.48
2023-03-26T17:31:33.085Z,12.70
2023-03-26T17:34:34.030Z,12.20
2023-03-26T17:37:03.739Z,17.73
2023-03-26T17:40:36.185Z,10.65
2023-03-26T17:43:08.065Z,13.68
2023-03-26T17:45:37.135Z,11.95
2023-03-26T17:48:12.692Z,14.45
2023-03-26T17:50:48.004Z,14.45
2023-03-26T17:53:23.266Z,9.73
2023-03-26T17:55:52.098Z,12.57
2023-03-26T17:58:26.500Z,10.07
2023-03-26T18:01:01.230Z,10.23
2023-03-26T18:03:32.142Z,11.80
2023-03-26T18:06:07.333Z,10.05
2023-03-26T18:09:04.350Z,15.52
2023-03-26T18:12:03.825Z,12.90
2023-03-26T18:14:53.782Z,12.55
2023-03-26T18:17:20.313Z,15.98
2023-03-26T18:19:49.947Z,10.13
2023-03-26T18:22:25.291Z,10.73
2023-03-26T18:24:57.070Z,10.15
2023-03-26T18:27:23.879Z,16.33
2023-03-26T18:30:01.718Z,15.02
2023-03-26T18:32:31.529Z,8.48
2023-03-26T18:35:01.430Z,13.90
2023-03-26T18:37:29.683Z,7.28
2023-03-26T18:39:58.881Z,12.30
2023-03-26T18:42:27.352Z,10.32
2023-03-26T18:44:59.832Z,11.32
2023-03-26T18:47:29.895Z,12.52
2023-03-26T18:49:58.181Z,16.48
2023-03-26T18:52:28.128Z,11.15
2023-03-26T18:54:56.508Z,13.55
2023-03-26T18:57:24.851Z,15.65
2023-03-26T18:59:53.035Z,10.18
2023-03-26T19:02:20.830Z,15.68
2023-03-26T19:04:49.145Z,5.90
2023-03-26T19:07:18.597Z,9.35
2023-03-26T19:09:46.559Z,13.48
2023-03-26T19:12:19.805Z,11.32
2023-03-26T19:14:56.021Z,10.45
2023-03-26T19:17:26.502Z,6.75
2023-03-26T19:19:55.179Z,10.07
2023-03-26T19:22:25.206Z,8.38
2023-03-26T19:24:56.750Z,13.48
2023-03-26T19:27:23.563Z,10.68
2023-03-26T19:29:50.374Z,11.20
2023-03-26T19:32:18.766Z,11.35
2023-03-26T19:34:47.151Z,14.45
2023-03-26T19:37:19.909Z,15.77
2023-03-26T19:39:48.270Z,8.57
2023-03-26T19:42:19.891Z,6.45
2023-03-26T19:44:46.599Z,5.70
2023-03-26T19:47:17.446Z,7.35
2023-03-26T19:49:50.758Z,6.43
2023-03-26T19:52:21.909Z,10.07
2023-03-26T19:55:00.621Z,9.35
2023-03-26T19:57:29.811Z,12.02
2023-03-26T19:59:56.465Z,6.47
2023-03-26T20:02:23.342Z,8.05
2023-03-26T20:04:50.377Z,9.20
2023-03-26T20:07:18.847Z,11.98
2023-03-26T20:09:48.269Z,13.52
2023-03-26T20:12:19.390Z,14.07
2023-03-26T20:14:47.646Z,6.00
2023-03-26T20:17:16.926Z,14.45
2023-03-26T20:19:43.737Z,12.90
2023-03-26T20:22:15.058Z,11.50
2023-03-26T20:24:42.376Z,8.70
2023-03-26T20:27:08.895Z,10.43
2023-03-26T20:29:35.410Z,13.68
2023-03-26T20:32:03.349Z,12.77
2023-03-26T20:34:29.876Z,8.93
2023-03-26T20:36:56.359Z,11.95
2023-03-26T20:39:27.773Z,12.93
2023-03-26T20:41:55.162Z,6.45
2023-03-26T20:44:22.071Z,9.63
2023-03-26T20:46:49.830Z,10.60
2023-03-26T20:49:18.312Z,8.07
2023-03-26T20:51:45.248Z,10.63
2023-03-26T20:54:16.213Z,8.10
2023-03-26T20:56:43.065Z,9.50
2023-03-26T20:59:17.434Z,8.20
2023-03-26T21:01:43.907Z,7.60
2023-03-26T21:04:10.394Z,10.88
2023-03-26T21:06:38.311Z,12.13
2023-03-26T21:09:05.693Z,8.50
2023-03-26T21:11:44.838Z,11.48
2023-03-26T21:14:18.477Z,10.30
2023-03-26T21:16:45.483Z,4.55
2023-03-26T21:19:12.661Z,10.02
2023-03-26T21:21:50.424Z,8.10
2023-03-26T21:24:25.868Z,10.85
2023-03-26T21:26:58.566Z,11.20
2023-03-26T21:29:25.530Z,14.48
2023-03-26T21:31:54.119Z,6.95
2023-03-26T21:34:21.283Z,10.52
2023-03-26T21:36:49.771Z,9.25
2023-03-26T21:39:16.748Z,13.88
2023-03-26T21:41:46.818Z,11.18
2023-03-26T21:44:13.589Z,8.95
2023-03-26T21:46:42.212Z,11.60
2023-03-26T21:49:09.212Z,6.45
2023-03-26T21:51:36.247Z,14.55
2023-03-26T21:54:05.500Z,10.43
2023-03-26T21:56:42.415Z,9.25
2023-03-26T21:59:18.507Z,13.02
2023-03-26T22:01:51.681Z,7.55
2023-03-26T22:04:28.320Z,15.38
2023-03-26T22:07:00.690Z,13.18
2023-03-26T22:09:36.416Z,12.93
2023-03-26T22:12:03.572Z,15.23
2023-03-26T22:14:30.137Z,10.23
2023-03-26T22:16:56.885Z,10.70
2023-03-26T22:19:23.375Z,12.75
2023-03-26T22:21:49.902Z,14.15
2023-03-26T22:24:16.555Z,10.75
2023-03-26T22:26:44.388Z,12.63
2023-03-26T22:29:11.446Z,12.57
2023-03-26T22:31:38.426Z,16.48
2023-03-26T22:34:05.379Z,8.43
2023-03-26T22:36:32.283Z,12.02
2023-03-26T22:38:58.816Z,8.05
2023-03-26T22:41:25.725Z,8.38
2023-03-26T22:43:55.341Z,8.43
2023-03-26T22:46:22.793Z,10.68
2023-03-26T22:48:49.350Z,10.70
2023-03-26T22:51:16.090Z,13.68
2023-03-26T22:53:42.921Z,12.55
2023-03-26T22:56:10.338Z,16.25
2023-03-26T22:58:37.216Z,10.65
2023-03-26T23:01:08.127Z,10.60
2023-03-26T23:03:35.757Z,10.65
2023-03-26T23:06:05.243Z,8.80
2023-03-26T23:08:32.720Z,10.35
2023-03-26T23:10:59.295Z,12.98
2023-03-26T23:13:26.122Z,11.65
2023-03-26T23:15:56.504Z,12.43
2023-03-26T23:18:24.620Z,7.72
2023-03-26T23:20:52.125Z,15.55
2023-03-26T23:23:20.211Z,8.88
2023-03-26T23:25:46.737Z,9.60
2023-03-26T23:28:13.308Z,10.52
2023-03-26T23:30:39.823Z,9.30
2023-03-26T23:33:06.381Z,11.80
2023-03-26T23:35:34.322Z,7.70
2023-03-26T23:38:00.835Z,6.53
2023-03-26T23:40:27.266Z,10.27
2023-03-26T23:42:53.774Z,9.57
2023-03-26T23:45:20.269Z,7.78
2023-03-26T23:47:46.796Z,8.95
2023-03-26T23:50:13.307Z,9.63
2023-03-26T23:52:41.158Z,12.43
2023-03-26T23:55:08.401Z,10.02
2023-03-26T23:57:34.870Z,14.57
